sensor_id;sensor_type;location;lat;lon;timestamp;P1;durP1;ratioP1;P2;durP2;ratioP2
55346;SDS011;41218;55.700;38.270;2022-08-25T00:00:47;5.32;;;3.88;;
55346;SDS011;41218;55.700;38.270;2022-08-25T00:05:48;5.15;;;3.97;;
55346;SDS011;41218;55.700;38.270;2022-08-25T00:15:50;4.63;;;3.57;;
55346;SDS011;41218;55.700;38.270;2022-08-25T00:25:51;6.30;;;4.00;;
55346;SDS011;41218;55.700;38.270;2022-08-25T00:35:52;6.70;;;4.10;;
55346;SDS011;41218;55.700;38.270;2022-08-25T00:40:55;6.38;;;4.50;;
55346;SDS011;41218;55.700;38.270;2022-08-25T00:46:10;8.18;;;4.28;;
55346;SDS011;41218;55.700;38.270;2022-08-25T00:51:13;6.70;;;4.28;;
55346;SDS011;41218;55.700;38.270;2022-08-25T00:56:18;6.18;;;4.25;;
55346;SDS011;41218;55.700;38.270;2022-08-25T01:01:22;6.05;;;4.28;;
55346;SDS011;41218;55.700;38.270;2022-08-25T01:11:24;6.20;;;4.57;;
55346;SDS011;41218;55.700;38.270;2022-08-25T01:16:25;6.63;;;4.75;;
55346;SDS011;41218;55.700;38.270;2022-08-25T01:26:30;6.45;;;4.65;;
55346;SDS011;41218;55.700;38.270;2022-08-25T01:31:33;6.30;;;4.80;;
55346;SDS011;41218;55.700;38.270;2022-08-25T01:36:36;7.72;;;5.22;;
55346;SDS011;41218;55.700;38.270;2022-08-25T01:41:44;9.05;;;5.50;;
55346;SDS011;41218;55.700;38.270;2022-08-25T01:47:03;9.88;;;5.40;;
55346;SDS011;41218;55.700;38.270;2022-08-25T01:52:06;7.78;;;5.13;;
55346;SDS011;41218;55.700;38.270;2022-08-25T01:57:30;7.50;;;5.35;;
55346;SDS011;41218;55.700;38.270;2022-08-25T02:02:33;8.38;;;5.50;;
55346;SDS011;41218;55.700;38.270;2022-08-25T02:07:37;11.48;;;5.57;;
55346;SDS011;41218;55.700;38.270;2022-08-25T02:17:44;8.68;;;5.45;;
55346;SDS011;41218;55.700;38.270;2022-08-25T02:22:56;9.82;;;5.50;;
55346;SDS011;41218;55.700;38.270;2022-08-25T02:27:57;9.02;;;5.57;;
55346;SDS011;41218;55.700;38.270;2022-08-25T02:33:10;11.90;;;6.18;;
55346;SDS011;41218;55.700;38.270;2022-08-25T02:38:11;7.53;;;5.40;;
55346;SDS011;41218;55.700;38.270;2022-08-25T02:43:14;10.40;;;6.05;;
55346;SDS011;41218;55.700;38.270;2022-08-25T02:48:20;9.73;;;5.78;;
55346;SDS011;41218;55.700;38.270;2022-08-25T02:53:36;10.07;;;6.07;;
55346;SDS011;41218;55.700;38.270;2022-08-25T02:58:54;9.55;;;6.22;;
55346;SDS011;41218;55.700;38.270;2022-08-25T03:04:15;9.95;;;6.10;;
55346;SDS011;41218;55.700;38.270;2022-08-25T03:09:25;11.20;;;7.22;;
55346;SDS011;41218;55.700;38.270;2022-08-25T03:14:47;9.05;;;6.35;;
55346;SDS011;41218;55.700;38.270;2022-08-25T03:19:51;10.25;;;6.00;;
55346;SDS011;41218;55.700;38.270;2022-08-25T03:25:12;11.02;;;6.22;;
55346;SDS011;41218;55.700;38.270;2022-08-25T03:30:36;9.88;;;5.97;;
55346;SDS011;41218;55.700;38.270;2022-08-25T03:35:43;9.52;;;6.35;;
55346;SDS011;41218;55.700;38.270;2022-08-25T03:40:57;9.20;;;6.38;;
55346;SDS011;41218;55.700;38.270;2022-08-25T03:46:06;8.32;;;6.35;;
55346;SDS011;41218;55.700;38.270;2022-08-25T03:51:09;8.63;;;6.47;;
55346;SDS011;41218;55.700;38.270;2022-08-25T03:56:21;12.20;;;6.35;;
55346;SDS011;41218;55.700;38.270;2022-08-25T04:06:53;8.75;;;6.45;;
55346;SDS011;41218;55.700;38.270;2022-08-25T04:12:22;8.50;;;6.38;;
55346;SDS011;41218;55.700;38.270;2022-08-25T04:17:54;8.40;;;6.20;;
55346;SDS011;41218;55.700;38.270;2022-08-25T04:23:08;10.90;;;6.65;;
55346;SDS011;41218;55.700;38.270;2022-08-25T04:28:19;11.77;;;6.28;;
55346;SDS011;41218;55.700;38.270;2022-08-25T04:33:35;11.18;;;6.80;;
55346;SDS011;41218;55.700;38.270;2022-08-25T04:38:52;11.05;;;7.20;;
55346;SDS011;41218;55.700;38.270;2022-08-25T04:43:58;9.98;;;7.10;;
55346;SDS011;41218;55.700;38.270;2022-08-25T04:49:03;8.82;;;6.63;;
55346;SDS011;41218;55.700;38.270;2022-08-25T04:59:07;9.68;;;6.93;;
55346;SDS011;41218;55.700;38.270;2022-08-25T05:04:13;12.10;;;6.90;;
55346;SDS011;41218;55.700;38.270;2022-08-25T05:09:18;10.75;;;7.47;;
55346;SDS011;41218;55.700;38.270;2022-08-25T05:19:26;10.85;;;6.88;;
55346;SDS011;41218;55.700;38.270;2022-08-25T05:29:28;11.38;;;7.35;;
55346;SDS011;41218;55.700;38.270;2022-08-25T05:39:40;12.43;;;7.37;;
55346;SDS011;41218;55.700;38.270;2022-08-25T05:50:23;10.80;;;7.50;;
55346;SDS011;41218;55.700;38.270;2022-08-25T06:01:36;11.65;;;7.80;;
55346;SDS011;41218;55.700;38.270;2022-08-25T06:07:03;13.05;;;8.20;;
55346;SDS011;41218;55.700;38.270;2022-08-25T06:12:07;15.90;;;8.02;;
55346;SDS011;41218;55.700;38.270;2022-08-25T06:17:10;14.70;;;7.63;;
55346;SDS011;41218;55.700;38.270;2022-08-25T06:28:31;11.73;;;7.78;;
55346;SDS011;41218;55.700;38.270;2022-08-25T06:34:18;10.35;;;7.45;;
55346;SDS011;41218;55.700;38.270;2022-08-25T06:39:21;11.18;;;7.97;;
55346;SDS011;41218;55.700;38.270;2022-08-25T06:44:23;9.07;;;7.90;;
55346;SDS011;41218;55.700;38.270;2022-08-25T06:49:24;12.07;;;8.00;;
55346;SDS011;41218;55.700;38.270;2022-08-25T06:54:27;11.80;;;8.10;;
55346;SDS011;41218;55.700;38.270;2022-08-25T06:59:57;12.70;;;8.05;;
55346;SDS011;41218;55.700;38.270;2022-08-25T07:04:57;11.30;;;7.72;;
55346;SDS011;41218;55.700;38.270;2022-08-25T07:09:58;12.65;;;7.60;;
55346;SDS011;41218;55.700;38.270;2022-08-25T07:26:10;11.13;;;7.40;;
55346;SDS011;41218;55.700;38.270;2022-08-25T07:31:22;9.48;;;6.85;;
55346;SDS011;41218;55.700;38.270;2022-08-25T07:49:12;11.50;;;6.72;;
55346;SDS011;41218;55.700;38.270;2022-08-25T08:00:32;10.27;;;7.10;;
55346;SDS011;41218;55.700;38.270;2022-08-25T08:17:06;10.38;;;6.70;;
55346;SDS011;41218;55.700;38.270;2022-08-25T08:22:11;12.57;;;6.35;;
55346;SDS011;41218;55.700;38.270;2022-08-25T08:33:42;12.93;;;6.25;;
55346;SDS011;41218;55.700;38.270;2022-08-25T09:21:02;9.88;;;7.38;;
55346;SDS011;41218;55.700;38.270;2022-08-25T09:32:16;8.18;;;6.45;;
55346;SDS011;41218;55.700;38.270;2022-08-25T09:38:05;9.73;;;6.80;;
55346;SDS011;41218;55.700;38.270;2022-08-25T09:48:47;7.57;;;6.38;;
55346;SDS011;41218;55.700;38.270;2022-08-25T09:54:04;8.82;;;7.53;;
55346;SDS011;41218;55.700;38.270;2022-08-25T09:59:35;9.52;;;7.43;;
55346;SDS011;41218;55.700;38.270;2022-08-25T10:04:52;9.40;;;7.15;;
55346;SDS011;41218;55.700;38.270;2022-08-25T11:17:06;9.25;;;7.00;;
55346;SDS011;41218;55.700;38.270;2022-08-25T11:22:51;10.25;;;7.22;;
55346;SDS011;41218;55.700;38.270;2022-08-25T11:33:25;8.45;;;7.32;;
55346;SDS011;41218;55.700;38.270;2022-08-25T11:54:41;9.93;;;7.72;;
55346;SDS011;41218;55.700;38.270;2022-08-25T13:28:31;9.50;;;7.13;;
55346;SDS011;41218;55.700;38.270;2022-08-25T14:31:23;9.05;;;7.30;;
55346;SDS011;41218;55.700;38.270;2022-08-25T14:36:53;8.52;;;6.97;;
55346;SDS011;41218;55.700;38.270;2022-08-25T14:48:52;10.18;;;7.00;;
55346;SDS011;41218;55.700;38.270;2022-08-25T14:54:09;7.03;;;6.15;;
55346;SDS011;41218;55.700;38.270;2022-08-25T15:00:28;9.90;;;6.90;;
55346;SDS011;41218;55.700;38.270;2022-08-25T17:26:46;11.70;;;9.27;;
55346;SDS011;41218;55.700;38.270;2022-08-25T17:58:19;15.73;;;10.25;;
55346;SDS011;41218;55.700;38.270;2022-08-25T18:23:28;13.68;;;9.60;;
55346;SDS011;41218;55.700;38.270;2022-08-25T18:29:00;12.73;;;10.60;;
55346;SDS011;41218;55.700;38.270;2022-08-25T18:34:01;13.10;;;10.73;;
55346;SDS011;41218;55.700;38.270;2022-08-25T18:39:05;14.65;;;10.77;;
55346;SDS011;41218;55.700;38.270;2022-08-25T18:50:08;14.55;;;11.02;;
55346;SDS011;41218;55.700;38.270;2022-08-25T19:01:28;13.90;;;10.75;;
55346;SDS011;41218;55.700;38.270;2022-08-25T19:06:32;18.40;;;10.60;;
55346;SDS011;41218;55.700;38.270;2022-08-25T19:11:42;14.15;;;10.60;;
55346;SDS011;41218;55.700;38.270;2022-08-25T19:17:00;13.20;;;10.70;;
55346;SDS011;41218;55.700;38.270;2022-08-25T19:22:16;14.63;;;10.63;;
55346;SDS011;41218;55.700;38.270;2022-08-25T19:27:17;14.18;;;10.85;;
55346;SDS011;41218;55.700;38.270;2022-08-25T19:32:18;16.00;;;10.68;;
55346;SDS011;41218;55.700;38.270;2022-08-25T19:37:19;14.50;;;11.00;;
55346;SDS011;41218;55.700;38.270;2022-08-25T19:42:25;14.30;;;10.75;;
55346;SDS011;41218;55.700;38.270;2022-08-25T19:47:28;14.70;;;11.52;;
55346;SDS011;41218;55.700;38.270;2022-08-25T19:52:30;15.75;;;10.65;;
55346;SDS011;41218;55.700;38.270;2022-08-25T19:57:38;14.38;;;10.48;;
55346;SDS011;41218;55.700;38.270;2022-08-25T20:02:50;15.98;;;10.80;;
55346;SDS011;41218;55.700;38.270;2022-08-25T20:07:52;16.30;;;10.52;;
55346;SDS011;41218;55.700;38.270;2022-08-25T20:19:00;13.63;;;10.82;;
55346;SDS011;41218;55.700;38.270;2022-08-25T20:24:04;18.52;;;12.25;;
55346;SDS011;41218;55.700;38.270;2022-08-25T20:29:23;15.30;;;11.27;;
55346;SDS011;41218;55.700;38.270;2022-08-25T20:34:26;17.42;;;11.88;;
55346;SDS011;41218;55.700;38.270;2022-08-25T20:39:28;16.08;;;11.65;;
55346;SDS011;41218;55.700;38.270;2022-08-25T20:44:31;15.98;;;12.10;;
55346;SDS011;41218;55.700;38.270;2022-08-25T20:49:33;15.00;;;11.65;;
55346;SDS011;41218;55.700;38.270;2022-08-25T20:54:52;15.68;;;12.63;;
55346;SDS011;41218;55.700;38.270;2022-08-25T20:59:54;16.77;;;12.40;;
55346;SDS011;41218;55.700;38.270;2022-08-25T21:04:58;18.20;;;12.73;;
55346;SDS011;41218;55.700;38.270;2022-08-25T21:10:00;15.75;;;12.27;;
55346;SDS011;41218;55.700;38.270;2022-08-25T21:21:36;19.25;;;13.80;;
55346;SDS011;41218;55.700;38.270;2022-08-25T21:26:40;21.25;;;14.85;;
55346;SDS011;41218;55.700;38.270;2022-08-25T21:31:41;21.20;;;14.90;;
55346;SDS011;41218;55.700;38.270;2022-08-25T21:36:42;24.30;;;17.35;;
55346;SDS011;41218;55.700;38.270;2022-08-25T21:41:43;27.42;;;19.13;;
55346;SDS011;41218;55.700;38.270;2022-08-25T21:46:44;32.00;;;21.73;;
55346;SDS011;41218;55.700;38.270;2022-08-25T21:51:45;32.40;;;21.90;;
55346;SDS011;41218;55.700;38.270;2022-08-25T21:56:52;35.17;;;23.35;;
55346;SDS011;41218;55.700;38.270;2022-08-25T22:01:55;33.47;;;23.45;;
55346;SDS011;41218;55.700;38.270;2022-08-25T22:06:57;33.13;;;23.35;;
55346;SDS011;41218;55.700;38.270;2022-08-25T22:11:58;35.25;;;22.90;;
55346;SDS011;41218;55.700;38.270;2022-08-25T22:16:59;37.10;;;24.25;;
55346;SDS011;41218;55.700;38.270;2022-08-25T22:22:00;35.55;;;25.35;;
55346;SDS011;41218;55.700;38.270;2022-08-25T22:27:01;38.17;;;24.45;;
55346;SDS011;41218;55.700;38.270;2022-08-25T22:32:01;39.15;;;26.23;;
55346;SDS011;41218;55.700;38.270;2022-08-25T22:37:03;41.13;;;26.83;;
55346;SDS011;41218;55.700;38.270;2022-08-25T22:42:04;41.40;;;26.95;;
55346;SDS011;41218;55.700;38.270;2022-08-25T22:47:05;38.47;;;25.83;;
55346;SDS011;41218;55.700;38.270;2022-08-25T22:52:06;40.83;;;25.75;;
55346;SDS011;41218;55.700;38.270;2022-08-25T22:57:07;41.17;;;26.58;;
55346;SDS011;41218;55.700;38.270;2022-08-25T23:02:08;42.13;;;27.23;;
55346;SDS011;41218;55.700;38.270;2022-08-25T23:07:09;40.35;;;26.45;;
55346;SDS011;41218;55.700;38.270;2022-08-25T23:12:10;44.58;;;27.20;;
55346;SDS011;41218;55.700;38.270;2022-08-25T23:17:11;43.50;;;25.98;;
55346;SDS011;41218;55.700;38.270;2022-08-25T23:22:12;39.80;;;26.13;;
55346;SDS011;41218;55.700;38.270;2022-08-25T23:27:15;40.28;;;26.40;;
55346;SDS011;41218;55.700;38.270;2022-08-25T23:32:17;42.70;;;26.13;;
55346;SDS011;41218;55.700;38.270;2022-08-25T23:42:19;37.43;;;24.07;;
55346;SDS011;41218;55.700;38.270;2022-08-25T23:47:19;42.10;;;26.67;;
55346;SDS011;41218;55.700;38.270;2022-08-25T23:52:20;46.83;;;27.63;;
55346;SDS011;41218;55.700;38.270;2022-08-25T23:57:21;47.67;;;28.52;;
